Time;durP1;ratioP1;P1;durP2;ratioP2;P2;SDS_P1;SDS_P2;PMS_P1;PMS_P2;Temp;Humidity;BMP_temperature;BMP_pressure;BME280_temperature;BME280_humidity;BME280_pressure;Samples;Min_cycle;Max_cycle;Signal;HPM_P1;HPM_P2
2021/12/12 00:00:38;;;;;;;63.93;14.43;;;9.90;99.90;;;;;;5114511;27;20268;-75
2021/12/12 00:03:16;;;;;;;56.70;13.97;;;9.90;99.90;;;;;;5113917;28;20198;-74
2021/12/12 00:05:46;;;;;;;86.07;15.17;;;9.90;99.90;;;;;;5115133;27;20374;-74
2021/12/12 00:08:17;;;;;;;54.07;13.97;;;9.90;99.90;;;;;;5115936;27;20229;-75
2021/12/12 00:10:47;;;;;;;52.03;13.40;;;10.00;99.90;;;;;;5128649;27;20202;-74
2021/12/12 00:13:20;;;;;;;99.60;15.37;;;9.90;99.90;;;;;;5107068;27;20645;-75
2021/12/12 00:15:47;;;;;;;60.00;13.97;;;9.90;99.90;;;;;;5114730;27;20312;-75
2021/12/12 00:18:14;;;;;;;59.23;13.53;;;10.00;99.90;;;;;;5113410;28;20395;-75
2021/12/12 00:20:42;;;;;;;76.30;14.27;;;10.00;99.90;;;;;;5114234;28;20286;-75
2021/12/12 00:23:09;;;;;;;72.53;14.40;;;10.00;99.90;;;;;;5120159;27;20280;-74
2021/12/12 00:25:42;;;;;;;53.07;13.83;;;10.00;99.90;;;;;;5124244;27;20285;-75
2021/12/12 00:28:11;;;;;;;59.53;14.53;;;10.00;99.90;;;;;;5106934;28;20206;-75
2021/12/12 00:30:39;;;;;;;75.90;13.27;;;10.00;99.90;;;;;;5112883;28;20289;-75
2021/12/12 00:33:06;;;;;;;97.73;14.10;;;10.00;99.90;;;;;;5113741;28;20294;-75
2021/12/12 00:35:33;;;;;;;124.13;15.17;;;10.00;99.90;;;;;;5113760;28;20317;-75
2021/12/12 00:38:07;;;;;;;121.87;15.63;;;10.00;99.90;;;;;;5131838;27;20284;-74
2021/12/12 00:40:40;;;;;;;132.10;14.13;;;10.00;99.90;;;;;;5113520;28;20725;-74
2021/12/12 00:43:13;;;;;;;92.73;13.77;;;10.00;99.90;;;;;;5113346;28;20209;-75
2021/12/12 00:45:41;;;;;;;128.37;15.60;;;10.00;99.90;;;;;;5113653;28;20529;-75
2021/12/12 00:48:08;;;;;;;91.00;14.43;;;10.00;99.90;;;;;;5121250;27;20246;-75
2021/12/12 00:50:39;;;;;;;110.47;14.67;;;10.00;99.90;;;;;;5118074;27;20229;-74
2021/12/12 00:53:08;;;;;;;89.10;13.47;;;10.00;99.90;;;;;;5113272;28;20281;-74
2021/12/12 00:55:37;;;;;;;101.10;14.20;;;10.00;99.90;;;;;;5112947;27;20221;-74
2021/12/12 00:58:06;;;;;;;143.47;14.37;;;10.10;99.90;;;;;;5112503;28;20209;-75
2021/12/12 01:00:38;;;;;;;110.10;13.93;;;10.00;99.90;;;;;;5113189;28;20668;-75
2021/12/12 01:03:09;;;;;;;108.53;14.00;;;10.00;99.90;;;;;;5112632;28;20610;-74
2021/12/12 01:05:37;;;;;;;93.60;13.03;;;10.00;99.90;;;;;;5111474;28;20280;-74
2021/12/12 01:08:05;;;;;;;143.87;15.57;;;10.00;99.90;;;;;;5112687;27;20315;-75
2021/12/12 01:10:35;;;;;;;98.87;14.83;;;10.00;99.90;;;;;;5112667;27;20399;-75
2021/12/12 01:13:04;;;;;;;101.53;14.33;;;10.00;99.90;;;;;;5112503;28;20663;-74
2021/12/12 01:15:36;;;;;;;135.53;16.07;;;10.00;99.90;;;;;;5123539;27;20213;-75
2021/12/12 01:18:06;;;;;;;192.60;16.57;;;10.10;99.90;;;;;;5112947;28;20276;-75
2021/12/12 01:20:38;;;;;;;177.40;15.30;;;10.00;99.90;;;;;;5112453;28;20223;-75
2021/12/12 01:23:09;;;;;;;136.37;14.87;;;10.00;99.90;;;;;;5117195;27;20208;-74
2021/12/12 01:25:43;;;;;;;102.20;13.60;;;10.10;99.90;;;;;;5112584;28;20317;-74
2021/12/12 01:28:12;;;;;;;87.00;13.53;;;10.00;99.90;;;;;;5113132;28;20237;-74
2021/12/12 01:30:41;;;;;;;89.33;13.33;;;10.00;99.90;;;;;;5113057;28;20654;-75
2021/12/12 01:33:09;;;;;;;90.70;12.40;;;10.00;99.90;;;;;;5112972;27;20748;-75
2021/12/12 01:35:37;;;;;;;96.03;13.27;;;10.00;99.90;;;;;;5112595;28;20228;-75
2021/12/12 01:40:54;;;;;;;126.93;14.47;;;10.00;99.90;;;;;;5111110;28;20254;-75
2021/12/12 01:43:26;;;;;;;113.80;14.43;;;10.00;99.90;;;;;;5113020;28;20276;-75
2021/12/12 01:46:00;;;;;;;133.57;13.37;;;10.00;99.90;;;;;;5112634;28;20194;-73
2021/12/12 01:48:29;;;;;;;40.63;11.77;;;10.10;99.90;;;;;;5112125;28;20305;-75
2021/12/12 01:51:00;;;;;;;107.87;13.63;;;10.00;99.90;;;;;;5123504;27;20277;-74
2021/12/12 01:53:31;;;;;;;106.80;12.97;;;10.00;99.90;;;;;;5116208;27;20598;-75
2021/12/12 01:56:01;;;;;;;99.23;13.30;;;10.00;99.90;;;;;;5116894;27;20308;-75
2021/12/12 01:58:31;;;;;;;69.10;12.40;;;10.00;99.90;;;;;;5112573;28;20237;-74
2021/12/12 02:01:04;;;;;;;120.67;14.17;;;10.00;99.90;;;;;;5112413;28;20233;-75
2021/12/12 02:03:34;;;;;;;94.37;12.90;;;10.00;99.90;;;;;;5112335;28;20611;-75
2021/12/12 02:06:02;;;;;;;91.83;12.10;;;10.00;99.90;;;;;;5112256;28;20236;-74
2021/12/12 02:08:31;;;;;;;67.07;11.13;;;10.00;99.90;;;;;;5105858;28;20757;-74
2021/12/12 02:11:01;;;;;;;105.10;12.93;;;10.00;99.90;;;;;;5111048;28;20281;-74
2021/12/12 02:13:32;;;;;;;85.87;11.87;;;10.00;99.90;;;;;;5112536;27;20213;-75
2021/12/12 02:16:01;;;;;;;105.43;12.93;;;10.10;99.90;;;;;;5110977;28;20749;-74
2021/12/12 02:18:35;;;;;;;122.10;13.43;;;10.00;99.90;;;;;;5111725;28;20241;-75
2021/12/12 02:21:09;;;;;;;126.23;12.83;;;10.00;99.90;;;;;;5111517;28;20208;-75
2021/12/12 02:23:54;;;;;;;126.33;13.90;;;10.00;99.90;;;;;;5111623;28;20292;-74
2021/12/12 02:37:21;;;;;;;167.60;14.30;;;10.10;99.90;;;;;;5103910;28;20251;-75
2021/12/12 02:39:50;;;;;;;159.80;15.17;;;10.10;99.90;;;;;;5122658;27;20295;-75
2021/12/12 02:42:21;;;;;;;147.53;13.73;;;10.10;99.90;;;;;;5113747;28;20609;-73
2021/12/12 02:44:53;;;;;;;122.70;13.47;;;10.10;99.90;;;;;;5113317;28;20227;-74
2021/12/12 02:47:21;;;;;;;133.23;14.30;;;10.10;99.90;;;;;;5111904;28;20665;-75
2021/12/12 02:50:06;;;;;;;106.83;14.17;;;10.10;99.90;;;;;;5112212;28;20252;-74
2021/12/12 02:52:34;;;;;;;111.83;14.20;;;10.10;99.90;;;;;;5112453;28;20205;-74
2021/12/12 02:55:08;;;;;;;105.77;13.03;;;10.10;99.90;;;;;;5125840;27;20667;-74
2021/12/12 02:57:35;;;;;;;92.33;14.30;;;10.10;99.90;;;;;;5115178;28;20291;-74
2021/12/12 03:00:04;;;;;;;125.20;14.70;;;10.10;99.90;;;;;;5116213;28;20285;-74
2021/12/12 03:02:39;;;;;;;63.37;12.90;;;10.10;99.90;;;;;;5115853;28;20284;-75
2021/12/12 03:05:07;;;;;;;91.57;13.87;;;10.10;99.90;;;;;;5115937;27;20189;-74
2021/12/12 03:07:35;;;;;;;140.50;15.93;;;10.10;99.90;;;;;;5114589;28;20205;-74
2021/12/12 03:10:08;;;;;;;93.60;14.43;;;10.10;99.90;;;;;;5115629;28;20229;-74
2021/12/12 03:12:37;;;;;;;100.60;13.73;;;10.10;99.90;;;;;;5115402;28;20229;-75
2021/12/12 03:15:09;;;;;;;99.10;14.63;;;10.10;99.90;;;;;;5114702;28;20740;-74
2021/12/12 03:17:38;;;;;;;93.40;13.93;;;10.10;99.90;;;;;;5114986;28;20225;-74
2021/12/12 03:20:12;;;;;;;100.83;14.33;;;10.10;99.90;;;;;;5114978;27;20225;-74
2021/12/12 03:22:39;;;;;;;83.50;13.90;;;10.10;99.90;;;;;;5114878;28;20709;-74
2021/12/12 03:25:08;;;;;;;66.53;13.00;;;10.10;99.90;;;;;;5115037;28;20490;-73
2021/12/12 03:27:36;;;;;;;66.03;13.10;;;10.10;99.90;;;;;;5115393;28;20285;-75
2021/12/12 03:30:06;;;;;;;60.60;12.23;;;10.10;99.90;;;;;;5115097;28;20232;-73
2021/12/12 03:32:33;;;;;;;69.43;12.57;;;10.10;99.90;;;;;;5115469;27;20213;-73
2021/12/12 03:35:01;;;;;;;71.17;12.30;;;10.10;99.90;;;;;;5114277;28;20280;-73
2021/12/12 03:37:31;;;;;;;68.43;12.60;;;10.00;99.90;;;;;;5115128;28;20230;-76
2021/12/12 03:40:00;;;;;;;46.60;11.60;;;10.10;99.90;;;;;;5115145;28;20219;-76
2021/12/12 03:42:30;;;;;;;39.63;10.60;;;10.10;99.90;;;;;;5114786;28;20705;-76
2021/12/12 03:44:59;;;;;;;27.87;11.03;;;10.10;99.90;;;;;;5114822;28;20284;-74
2021/12/12 03:47:31;;;;;;;26.87;11.43;;;10.10;99.90;;;;;;5114862;28;20229;-73
2021/12/12 03:50:01;;;;;;;26.67;11.13;;;10.10;99.90;;;;;;5115046;28;20289;-73
2021/12/12 03:52:29;;;;;;;22.17;10.47;;;10.20;99.90;;;;;;5114845;28;20292;-76
2021/12/12 03:55:00;;;;;;;23.73;10.87;;;10.20;99.90;;;;;;5115121;28;20225;-75
2021/12/12 03:57:30;;;;;;;19.87;10.27;;;10.10;99.90;;;;;;5126029;27;20259;-73
2021/12/12 03:59:58;;;;;;;23.83;10.63;;;10.20;99.90;;;;;;5115242;27;20288;-76
2021/12/12 04:02:25;;;;;;;25.83;10.27;;;10.20;99.90;;;;;;5114136;28;20196;-76
2021/12/12 04:04:52;;;;;;;21.17;10.73;;;10.20;99.90;;;;;;5112480;28;20281;-76
2021/12/12 04:07:23;;;;;;;26.40;10.50;;;10.20;99.90;;;;;;5106764;28;20285;-76
2021/12/12 04:09:50;;;;;;;21.47;9.93;;;10.20;99.90;;;;;;5113542;27;20284;-76
2021/12/12 04:12:21;;;;;;;21.23;10.43;;;10.20;99.90;;;;;;5113909;28;20764;-76
2021/12/12 04:14:52;;;;;;;21.00;10.43;;;10.20;99.90;;;;;;5114541;28;20586;-76
2021/12/12 04:17:22;;;;;;;28.07;11.03;;;10.10;99.90;;;;;;5114250;28;20340;-76
2021/12/12 04:19:53;;;;;;;22.37;9.73;;;10.10;99.90;;;;;;5120038;27;20631;-76
2021/12/12 04:22:20;;;;;;;20.20;9.67;;;10.10;99.90;;;;;;5113945;28;20277;-76
2021/12/12 04:24:49;;;;;;;19.70;10.03;;;10.20;99.90;;;;;;5114709;28;20626;-75
2021/12/12 04:27:18;;;;;;;23.00;10.03;;;10.20;99.90;;;;;;5114707;28;20280;-75
2021/12/12 04:29:49;;;;;;;17.63;9.10;;;10.20;99.90;;;;;;5113610;28;20301;-76
2021/12/12 04:32:20;;;;;;;19.67;9.50;;;10.20;99.90;;;;;;5113754;28;20233;-76
2021/12/12 04:34:51;;;;;;;22.73;10.13;;;10.30;99.90;;;;;;5112962;28;20760;-76
2021/12/12 04:37:19;;;;;;;19.23;9.27;;;10.30;99.90;;;;;;5114077;28;20308;-76
2021/12/12 04:39:49;;;;;;;20.43;9.60;;;10.30;99.90;;;;;;5112939;28;20194;-76
2021/12/12 04:42:21;;;;;;;17.77;8.27;;;10.30;99.90;;;;;;5114334;28;20194;-75
2021/12/12 04:44:50;;;;;;;18.20;9.40;;;10.40;99.90;;;;;;5131255;27;20292;-76
2021/12/12 04:50:17;;;;;;;21.13;8.43;;;10.40;99.90;;;;;;5121957;27;20684;-76
2021/12/12 04:52:48;;;;;;;23.87;9.13;;;10.40;99.90;;;;;;5113621;28;20435;-76
2021/12/12 04:55:24;;;;;;;21.83;8.97;;;10.40;99.90;;;;;;5114102;28;20230;-76
2021/12/12 04:57:59;;;;;;;22.10;9.00;;;10.40;99.90;;;;;;5114654;27;20203;-76
2021/12/12 05:00:31;;;;;;;20.63;8.80;;;10.40;99.90;;;;;;5112615;28;20242;-76
2021/12/12 05:03:11;;;;;;;23.43;9.20;;;10.40;99.90;;;;;;5112869;27;20193;-76
2021/12/12 05:05:47;;;;;;;17.57;8.10;;;10.40;99.90;;;;;;5113662;27;20229;-76
2021/12/12 05:08:23;;;;;;;21.20;8.63;;;10.50;99.90;;;;;;5112570;28;20215;-76
2021/12/12 05:10:55;;;;;;;21.87;9.07;;;10.50;99.90;;;;;;5113941;28;20193;-76
2021/12/12 05:13:25;;;;;;;25.13;9.27;;;10.50;99.90;;;;;;5113097;28;20280;-76
2021/12/12 05:15:57;;;;;;;25.67;9.70;;;10.50;99.90;;;;;;5112469;27;20716;-76
2021/12/12 05:18:30;;;;;;;28.60;11.60;;;10.40;99.90;;;;;;5114675;27;20225;-76
2021/12/12 05:21:02;;;;;;;29.03;11.37;;;10.40;99.90;;;;;;5117535;27;20198;-76
2021/12/12 05:23:31;;;;;;;28.27;11.73;;;10.50;99.90;;;;;;5112104;28;20229;-75
2021/12/12 05:26:00;;;;;;;34.30;12.67;;;10.50;99.90;;;;;;5112731;28;20228;-76
2021/12/12 05:28:32;;;;;;;30.73;13.43;;;10.50;99.90;;;;;;5122514;27;20205;-76
2021/12/12 05:31:01;;;;;;;33.23;13.57;;;10.50;99.90;;;;;;5113118;27;20236;-76
2021/12/12 05:33:30;;;;;;;34.13;13.73;;;10.50;99.90;;;;;;5112291;27;20616;-76
2021/12/12 05:35:58;;;;;;;33.83;13.37;;;10.50;99.90;;;;;;5112473;28;20787;-76
2021/12/12 05:38:26;;;;;;;34.20;13.43;;;10.50;99.90;;;;;;5112280;28;20285;-76
2021/12/12 05:40:54;;;;;;;33.73;13.13;;;10.50;99.90;;;;;;5129523;27;20279;-76
2021/12/12 05:43:22;;;;;;;33.80;13.37;;;10.50;99.90;;;;;;5117161;27;20281;-76
2021/12/12 05:45:52;;;;;;;32.03;13.53;;;10.50;99.90;;;;;;5112854;28;20202;-76
2021/12/12 05:48:21;;;;;;;26.30;12.13;;;10.50;99.90;;;;;;5123255;27;20283;-76
2021/12/12 05:50:50;;;;;;;28.83;12.07;;;10.50;99.90;;;;;;5112464;28;20289;-77
2021/12/12 05:53:18;;;;;;;27.43;10.90;;;10.50;99.90;;;;;;5112883;28;20232;-76
2021/12/12 05:55:46;;;;;;;23.87;10.30;;;10.50;99.90;;;;;;5112494;28;20232;-76
2021/12/12 05:58:17;;;;;;;29.87;10.30;;;10.50;99.90;;;;;;5112694;28;20800;-74
2021/12/12 06:00:50;;;;;;;26.57;9.80;;;10.50;99.90;;;;;;5111704;28;20289;-76
2021/12/12 06:03:24;;;;;;;27.43;10.13;;;10.40;99.90;;;;;;5112351;27;20634;-76
2021/12/12 06:05:57;;;;;;;26.50;9.73;;;10.40;99.90;;;;;;5111913;28;20284;-76
2021/12/12 06:08:25;;;;;;;23.23;9.50;;;10.30;99.90;;;;;;5112441;28;20228;-76
2021/12/12 06:10:54;;;;;;;23.73;8.63;;;10.40;99.90;;;;;;5114652;27;20285;-76
2021/12/12 06:13:23;;;;;;;22.47;8.63;;;10.40;99.90;;;;;;5112111;28;20284;-76
2021/12/12 06:15:53;;;;;;;26.00;8.90;;;10.30;99.90;;;;;;5111368;27;20259;-75
2021/12/12 06:18:22;;;;;;;22.10;8.40;;;10.40;99.90;;;;;;5112075;28;20284;-75
2021/12/12 06:20:49;;;;;;;23.07;8.40;;;10.40;99.90;;;;;;5112025;28;20284;-76
2021/12/12 06:23:19;;;;;;;28.23;8.47;;;10.40;99.90;;;;;;5112067;28;20304;-75
2021/12/12 06:25:47;;;;;;;25.03;8.33;;;10.40;99.90;;;;;;5112604;28;20296;-76
2021/12/12 06:28:17;;;;;;;25.53;7.97;;;10.40;99.90;;;;;;5110943;28;20745;-75
2021/12/12 06:30:44;;;;;;;24.13;7.90;;;10.30;99.90;;;;;;5116448;27;20266;-75
2021/12/12 06:33:12;;;;;;;26.93;8.37;;;10.30;99.90;;;;;;5132302;27;20283;-75
2021/12/12 06:35:42;;;;;;;28.07;7.93;;;10.30;99.90;;;;;;5132811;27;20283;-75
2021/12/12 06:38:11;;;;;;;24.67;8.47;;;10.30;99.90;;;;;;5116151;28;20308;-76
2021/12/12 06:40:40;;;;;;;20.07;7.53;;;10.30;99.90;;;;;;5119808;27;20201;-76
2021/12/12 06:43:10;;;;;;;24.70;7.37;;;10.30;99.90;;;;;;5113679;27;20197;-75
2021/12/12 06:45:37;;;;;;;21.83;7.90;;;10.20;99.90;;;;;;5111628;28;20281;-75
2021/12/12 06:48:05;;;;;;;23.53;7.23;;;10.20;99.90;;;;;;5111457;28;20284;-75
2021/12/12 06:50:34;;;;;;;17.97;6.80;;;10.20;99.90;;;;;;5110368;28;20284;-76
2021/12/12 06:53:03;;;;;;;19.93;7.50;;;10.10;99.90;;;;;;5112147;28;20284;-75
2021/12/12 06:55:31;;;;;;;18.87;7.77;;;10.20;99.90;;;;;;5111654;28;20284;-75
2021/12/12 06:58:00;;;;;;;22.47;7.07;;;10.20;99.90;;;;;;5111611;28;20229;-75
2021/12/12 07:00:28;;;;;;;23.50;7.27;;;10.20;99.90;;;;;;5117947;28;20236;-75
2021/12/12 07:02:55;;;;;;;27.13;6.90;;;10.20;99.90;;;;;;5111217;28;20225;-75
2021/12/12 07:05:26;;;;;;;22.07;7.27;;;10.10;99.90;;;;;;5110881;28;20189;-75
2021/12/12 07:07:55;;;;;;;22.27;7.43;;;10.20;99.90;;;;;;5118490;28;20247;-76
2021/12/12 07:10:24;;;;;;;24.77;7.33;;;10.20;99.90;;;;;;5115577;28;20201;-76
2021/12/12 07:12:55;;;;;;;25.73;8.00;;;10.20;99.90;;;;;;5106221;28;20280;-76
2021/12/12 07:15:26;;;;;;;26.50;7.67;;;10.20;99.90;;;;;;5114922;28;20332;-76
2021/12/12 07:17:55;;;;;;;18.10;7.10;;;10.20;99.90;;;;;;5111098;28;20282;-76
2021/12/12 07:20:22;;;;;;;22.00;7.50;;;10.30;99.90;;;;;;5111704;28;20280;-76
2021/12/12 07:22:50;;;;;;;21.97;7.90;;;10.30;99.90;;;;;;5111475;28;20197;-75
2021/12/12 07:25:18;;;;;;;22.00;7.70;;;10.30;99.90;;;;;;5111674;28;20205;-75
2021/12/12 07:27:45;;;;;;;23.03;7.90;;;10.20;99.90;;;;;;5110970;28;20285;-76
2021/12/12 07:30:12;;;;;;;23.37;7.57;;;10.20;99.90;;;;;;5110357;28;20280;-76
2021/12/12 07:32:41;;;;;;;26.10;7.87;;;10.20;99.90;;;;;;5110893;28;20193;-76
2021/12/12 07:35:09;;;;;;;17.90;7.40;;;10.30;99.90;;;;;;5110676;28;20288;-76
2021/12/12 07:37:38;;;;;;;20.77;7.90;;;10.20;99.90;;;;;;5115256;28;20300;-76
2021/12/12 07:40:07;;;;;;;21.33;7.60;;;10.20;99.90;;;;;;5129141;27;20301;-75
2021/12/12 07:42:34;;;;;;;24.10;7.80;;;10.20;99.90;;;;;;5115007;28;20625;-76
2021/12/12 07:45:02;;;;;;;28.77;8.80;;;10.20;99.90;;;;;;5114461;28;20595;-76
2021/12/12 07:47:30;;;;;;;23.07;8.03;;;10.20;99.90;;;;;;5114900;28;20669;-76
2021/12/12 07:49:59;;;;;;;28.07;9.00;;;10.30;99.90;;;;;;5118759;27;20284;-75
2021/12/12 07:52:28;;;;;;;23.33;8.00;;;10.30;99.90;;;;;;5114546;27;20284;-76
2021/12/12 07:54:57;;;;;;;20.20;7.70;;;10.30;99.90;;;;;;5120075;27;20193;-76
2021/12/12 07:57:28;;;;;;;18.40;7.27;;;10.30;99.90;;;;;;5113621;28;20581;-75
2021/12/12 07:59:56;;;;;;;19.93;8.13;;;10.30;99.90;;;;;;5114453;28;20263;-76
2021/12/12 08:02:24;;;;;;;19.77;8.23;;;10.30;99.90;;;;;;5114142;28;20329;-75
2021/12/12 08:04:52;;;;;;;23.80;7.97;;;10.30;99.90;;;;;;5114095;28;20197;-75
2021/12/12 08:07:23;;;;;;;26.17;8.37;;;10.30;99.90;;;;;;5114042;28;20379;-75
2021/12/12 08:09:51;;;;;;;24.40;8.53;;;10.30;99.90;;;;;;5114576;28;20198;-77
2021/12/12 08:12:21;;;;;;;22.53;7.77;;;10.30;99.90;;;;;;5113797;28;20293;-77
2021/12/12 08:14:50;;;;;;;27.33;8.17;;;10.40;99.90;;;;;;5106988;28;20256;-75
2021/12/12 08:17:20;;;;;;;23.67;7.83;;;10.30;99.90;;;;;;5113764;27;20681;-75
2021/12/12 08:19:48;;;;;;;21.77;7.80;;;10.40;99.90;;;;;;5112031;28;20254;-75
2021/12/12 08:22:15;;;;;;;23.07;8.20;;;10.40;99.90;;;;;;5113469;28;20194;-75
2021/12/12 08:24:44;;;;;;;27.67;8.30;;;10.40;99.90;;;;;;5113493;28;20193;-74
2021/12/12 08:27:12;;;;;;;20.50;8.33;;;10.40;99.90;;;;;;5113340;28;20222;-75
2021/12/12 08:29:40;;;;;;;26.70;8.67;;;10.40;99.90;;;;;;5113164;28;20292;-75
2021/12/12 08:32:09;;;;;;;24.70;8.03;;;10.50;99.90;;;;;;5113729;28;20277;-76
2021/12/12 08:34:37;;;;;;;30.40;8.23;;;10.50;99.90;;;;;;5113504;27;20280;-76
2021/12/12 08:37:05;;;;;;;34.33;8.13;;;10.50;99.90;;;;;;5113915;28;20257;-76
2021/12/12 08:39:33;;;;;;;55.53;9.10;;;10.50;99.90;;;;;;5113665;28;20198;-75
2021/12/12 08:42:03;;;;;;;32.67;8.97;;;10.50;99.90;;;;;;5112146;28;20194;-75
2021/12/12 08:44:32;;;;;;;43.00;9.60;;;10.50;99.90;;;;;;5113607;28;20201;-76
2021/12/12 08:47:01;;;;;;;44.37;9.47;;;10.60;99.90;;;;;;5113830;28;20603;-75
2021/12/12 08:49:31;;;;;;;37.70;8.90;;;10.60;99.90;;;;;;5113728;28;20289;-76
2021/12/12 08:52:03;;;;;;;21.00;8.50;;;10.70;99.90;;;;;;5112491;28;20204;-75
2021/12/12 08:54:31;;;;;;;31.23;9.03;;;10.60;99.90;;;;;;5129012;27;20228;-75
2021/12/12 08:57:08;;;;;;;25.97;8.13;;;10.70;99.90;;;;;;5112587;28;20577;-75
2021/12/12 08:59:39;;;;;;;27.47;9.30;;;10.70;99.90;;;;;;5113745;28;20193;-75
2021/12/12 09:02:10;;;;;;;23.97;8.03;;;10.70;99.90;;;;;;5112789;28;20204;-75
2021/12/12 09:04:43;;;;;;;22.87;9.07;;;10.70;99.90;;;;;;5108791;28;20230;-74
2021/12/12 09:07:14;;;;;;;35.03;10.00;;;10.70;99.90;;;;;;5102628;27;20193;-74
2021/12/12 09:09:49;;;;;;;24.73;10.33;;;10.70;99.90;;;;;;5112380;28;20276;-75
2021/12/12 09:12:23;;;;;;;25.63;9.10;;;10.80;99.90;;;;;;5114219;27;20220;-74
2021/12/12 09:14:53;;;;;;;22.33;9.80;;;10.80;99.90;;;;;;5109186;28;20304;-74
2021/12/12 09:17:25;;;;;;;18.67;9.07;;;10.90;99.90;;;;;;5111366;27;20225;-74
2021/12/12 09:19:57;;;;;;;15.77;8.97;;;10.90;99.90;;;;;;5112123;28;20293;-75
2021/12/12 09:22:31;;;;;;;15.53;8.63;;;10.90;99.90;;;;;;5112068;28;20194;-75
2021/12/12 09:25:02;;;;;;;21.97;9.00;;;10.90;99.90;;;;;;5111590;28;20279;-75
2021/12/12 09:27:35;;;;;;;19.13;10.13;;;10.90;99.90;;;;;;5111454;28;20217;-75
2021/12/12 09:30:07;;;;;;;13.93;8.43;;;10.90;99.90;;;;;;5111732;28;20659;-75
2021/12/12 09:32:39;;;;;;;14.93;8.23;;;10.90;99.90;;;;;;5111492;28;20361;-75
2021/12/12 09:35:10;;;;;;;17.47;8.87;;;11.00;99.90;;;;;;5111988;28;20189;-75
2021/12/12 09:37:42;;;;;;;17.47;8.17;;;11.00;99.90;;;;;;5107024;28;20297;-74
2021/12/12 09:40:21;;;;;;;15.33;8.43;;;11.00;99.90;;;;;;5111823;28;20230;-76
2021/12/12 09:43:26;;;;;;;15.83;7.90;;;11.10;99.90;;;;;;5112200;28;20289;-75
2021/12/12 09:46:18;;;;;;;14.97;7.40;;;11.10;99.90;;;;;;5111703;28;20228;-75
2021/12/12 09:52:23;;;;;;;13.70;7.80;;;11.20;99.90;;;;;;5096758;28;20193;-74
2021/12/12 09:54:56;;;;;;;15.97;7.33;;;11.30;99.90;;;;;;5110808;28;20608;-75
2021/12/12 09:57:27;;;;;;;12.80;6.90;;;11.40;99.90;;;;;;5106735;27;20228;-75
2021/12/12 10:00:10;;;;;;;15.63;7.57;;;11.60;99.90;;;;;;5111475;28;20201;-74
2021/12/12 10:02:54;;;;;;;12.90;7.53;;;11.40;99.90;;;;;;5110380;28;20657;-76
2021/12/12 10:05:37;;;;;;;14.17;7.20;;;11.50;99.90;;;;;;5110395;28;20277;-75
2021/12/12 10:08:13;;;;;;;17.70;7.20;;;11.60;99.90;;;;;;5106161;27;20186;-75
2021/12/12 10:10:48;;;;;;;10.60;7.43;;;11.70;99.90;;;;;;5110676;28;20221;-76
2021/12/12 10:13:23;;;;;;;11.67;7.40;;;11.70;99.90;;;;;;5110998;28;20277;-76
2021/12/12 10:15:57;;;;;;;12.00;7.40;;;11.70;99.90;;;;;;5107543;27;20268;-76
2021/12/12 10:18:37;;;;;;;10.10;6.37;;;11.80;99.90;;;;;;5110989;27;20275;-75
2021/12/12 10:21:12;;;;;;;10.20;6.13;;;11.70;99.90;;;;;;5108125;27;20190;-74
2021/12/12 10:24:02;;;;;;;9.80;5.40;;;11.80;99.90;;;;;;5109525;28;20280;-75
2021/12/12 10:26:34;;;;;;;11.63;5.70;;;11.70;99.90;;;;;;5119811;27;20285;-75
2021/12/12 10:29:07;;;;;;;10.50;5.77;;;11.80;99.90;;;;;;5110124;28;20224;-75
2021/12/12 10:31:42;;;;;;;8.17;5.50;;;11.90;99.90;;;;;;5109840;28;20201;-75
2021/12/12 10:34:15;;;;;;;11.03;5.93;;;11.90;99.90;;;;;;5104862;28;20201;-74
2021/12/12 10:36:51;;;;;;;8.03;5.40;;;11.90;99.90;;;;;;5108916;27;20874;-75
2021/12/12 10:39:24;;;;;;;9.00;5.87;;;11.80;99.90;;;;;;5109286;28;20319;-74
2021/12/12 10:41:58;;;;;;;7.90;5.03;;;11.90;99.90;;;;;;5109865;28;20200;-75
2021/12/12 10:44:29;;;;;;;6.87;4.50;;;12.10;99.90;;;;;;5109868;28;20197;-74
2021/12/12 10:47:06;;;;;;;10.67;4.63;;;12.00;99.90;;;;;;5108492;28;20193;-73
2021/12/12 10:49:38;;;;;;;7.23;4.20;;;12.00;99.90;;;;;;5107982;28;20193;-74
2021/12/12 10:52:08;;;;;;;5.77;4.07;;;12.10;99.90;;;;;;5111827;28;20258;-75
2021/12/12 10:54:42;;;;;;;5.90;3.93;;;12.00;99.90;;;;;;5110761;28;20288;-74
2021/12/12 10:57:13;;;;;;;7.93;4.33;;;12.00;99.90;;;;;;5110346;28;20289;-74
2021/12/12 10:59:46;;;;;;;6.30;4.33;;;12.00;99.90;;;;;;5109879;28;20724;-74
2021/12/12 11:02:20;;;;;;;7.43;3.87;;;12.00;99.90;;;;;;5107080;28;20209;-74
2021/12/12 11:04:49;;;;;;;8.83;4.17;;;12.10;99.90;;;;;;5110387;28;20285;-73
2021/12/12 11:07:21;;;;;;;7.37;4.70;;;12.10;99.90;;;;;;5109554;28;20294;-73
2021/12/12 11:09:57;;;;;;;7.67;4.17;;;12.10;99.90;;;;;;5111080;28;20290;-73
2021/12/12 11:12:31;;;;;;;7.33;3.70;;;12.10;99.90;;;;;;5110626;28;20679;-75
2021/12/12 11:15:03;;;;;;;6.63;3.43;;;12.00;99.90;;;;;;5111257;27;20950;-74
2021/12/12 11:17:37;;;;;;;6.57;4.03;;;12.00;99.90;;;;;;5113718;28;20747;-74
2021/12/12 11:20:07;;;;;;;6.20;4.13;;;12.00;99.90;;;;;;5114860;28;20197;-75
2021/12/12 11:22:39;;;;;;;6.57;3.37;;;12.00;99.90;;;;;;5106392;27;20282;-73
2021/12/12 11:25:11;;;;;;;7.53;3.80;;;12.00;99.90;;;;;;5114139;27;20285;-74
2021/12/12 11:27:43;;;;;;;7.00;3.80;;;12.10;99.90;;;;;;5113405;27;20276;-74
2021/12/12 11:30:18;;;;;;;7.87;3.63;;;12.20;99.90;;;;;;5113955;28;20399;-74
2021/12/12 11:32:49;;;;;;;5.67;3.70;;;12.20;99.90;;;;;;5112712;28;20199;-74
2021/12/12 11:35:21;;;;;;;9.87;3.60;;;12.40;99.90;;;;;;5114232;27;20574;-74
2021/12/12 11:37:55;;;;;;;6.17;4.10;;;12.40;99.90;;;;;;5114329;27;20222;-74
2021/12/12 11:40:27;;;;;;;7.10;3.90;;;12.50;99.90;;;;;;5114054;28;20281;-74
2021/12/12 11:43:00;;;;;;;5.97;3.73;;;12.60;99.90;;;;;;5114347;28;20286;-73
2021/12/12 11:45:31;;;;;;;7.93;3.80;;;12.50;99.90;;;;;;5114983;28;20248;-74
2021/12/12 11:48:12;;;;;;;8.30;4.50;;;12.50;99.90;;;;;;5114033;27;20190;-74
2021/12/12 11:50:46;;;;;;;7.50;3.90;;;12.50;99.90;;;;;;5114502;27;20208;-74
2021/12/12 11:53:18;;;;;;;6.37;3.70;;;12.60;99.90;;;;;;5113463;27;20762;-74
2021/12/12 11:55:50;;;;;;;4.57;3.57;;;12.60;99.90;;;;;;5113357;28;20198;-73
2021/12/12 11:58:24;;;;;;;5.07;3.53;;;12.70;99.90;;;;;;5114200;28;20304;-73
2021/12/12 12:00:58;;;;;;;7.70;4.20;;;12.70;99.90;;;;;;5125150;27;20280;-75
2021/12/12 12:03:36;;;;;;;5.93;3.73;;;12.70;99.90;;;;;;5113497;28;20204;-76
2021/12/12 12:06:15;;;;;;;6.10;3.77;;;12.70;99.90;;;;;;5114625;28;20601;-75
2021/12/12 12:09:02;;;;;;;9.23;3.90;;;12.70;99.90;;;;;;5113032;27;20319;-75
2021/12/12 12:11:44;;;;;;;7.30;3.47;;;12.80;99.90;;;;;;5113269;28;20232;-75
2021/12/12 12:14:24;;;;;;;8.10;3.93;;;12.90;99.90;;;;;;5113441;28;20248;-76
2021/12/12 12:16:58;;;;;;;8.23;4.03;;;12.90;99.90;;;;;;5112602;28;20316;-75
2021/12/12 12:19:40;;;;;;;4.47;3.63;;;12.80;99.90;;;;;;5111787;27;20313;-75
2021/12/12 12:22:22;;;;;;;6.40;4.00;;;12.90;99.90;;;;;;5107094;28;20300;-75
2021/12/12 12:25:01;;;;;;;6.30;4.10;;;12.80;99.90;;;;;;5112903;27;20213;-75
2021/12/12 12:27:34;;;;;;;5.63;3.63;;;12.90;99.90;;;;;;5114602;28;20193;-76
2021/12/12 12:30:41;;;;;;;4.60;3.40;;;12.90;99.90;;;;;;5114245;27;20277;-77
2021/12/12 12:34:10;;;;;;;5.87;3.70;;;12.80;99.90;;;;;;5117661;27;20598;-76
2021/12/12 12:40:15;;;;;;;6.83;3.73;;;12.80;99.90;;;;;;5145021;27;20964;-74
2021/12/12 12:43:18;;;;;;;6.17;4.03;;;12.90;99.90;;;;;;5145865;27;20283;-74
2021/12/12 12:46:27;;;;;;;4.27;3.80;;;12.80;99.90;;;;;;5148294;27;20231;-74
2021/12/12 12:49:37;;;;;;;7.63;4.60;;;12.80;99.90;;;;;;5146552;27;20188;-74
2021/12/12 12:52:37;;;;;;;5.20;3.80;;;12.80;99.90;;;;;;5105105;27;20207;-74
2021/12/12 12:55:34;;;;;;;8.90;4.47;;;12.70;99.90;;;;;;5146615;27;20283;-74
2021/12/12 12:58:27;;;;;;;6.40;4.50;;;12.70;99.90;;;;;;5147281;27;20215;-74
2021/12/12 13:00:58;;;;;;;7.23;3.80;;;12.80;99.90;;;;;;5145954;27;20292;-74
2021/12/12 13:03:36;;;;;;;9.03;4.40;;;12.70;99.90;;;;;;5148581;27;20291;-74
2021/12/12 13:07:09;;;;;;;9.00;4.73;;;12.70;99.90;;;;;;5147700;27;20196;-74
2021/12/12 13:09:49;;;;;;;7.13;4.17;;;12.70;99.90;;;;;;5149360;27;20192;-74
2021/12/12 13:12:53;;;;;;;11.10;4.50;;;12.70;99.90;;;;;;5145852;27;20851;-75
2021/12/12 13:15:30;;;;;;;8.43;4.10;;;12.70;99.90;;;;;;5139998;27;20328;-74
2021/12/12 13:18:16;;;;;;;6.77;4.77;;;12.70;99.90;;;;;;5145779;27;20774;-75
2021/12/12 13:20:59;;;;;;;7.70;3.90;;;12.70;99.90;;;;;;5145557;27;20211;-76
2021/12/12 13:23:42;;;;;;;5.50;3.90;;;12.80;99.90;;;;;;5143615;27;20651;-75